sensor_id;sensor_type;location;lat;lon;timestamp;P1;durP1;ratioP1;P2;durP2;ratioP2
19107;SDS011;9686;48.832;9.126;2024-03-23T00:55:43;2.47;;;2.20;;
19107;SDS011;9686;48.832;9.126;2024-03-23T00:58:09;2.90;;;2.07;;
19107;SDS011;9686;48.832;9.126;2024-03-23T01:00:34;2.40;;;2.23;;
19107;SDS011;9686;48.832;9.126;2024-03-23T01:03:00;2.83;;;2.50;;
19107;SDS011;9686;48.832;9.126;2024-03-23T01:05:25;4.37;;;2.07;;
19107;SDS011;9686;48.832;9.126;2024-03-23T01:07:51;16.47;;;3.33;;
19107;SDS011;9686;48.832;9.126;2024-03-23T01:10:16;2.87;;;2.13;;
19107;SDS011;9686;48.832;9.126;2024-03-23T01:12:41;3.17;;;1.93;;
19107;SDS011;9686;48.832;9.126;2024-03-23T01:15:07;2.13;;;1.80;;
19107;SDS011;9686;48.832;9.126;2024-03-23T01:17:32;2.30;;;2.10;;
19107;SDS011;9686;48.832;9.126;2024-03-23T01:19:57;1.80;;;1.70;;
19107;SDS011;9686;48.832;9.126;2024-03-23T01:22:23;2.47;;;1.70;;
19107;SDS011;9686;48.832;9.126;2024-03-23T01:24:48;1.83;;;1.50;;
19107;SDS011;9686;48.832;9.126;2024-03-23T01:27:13;5.17;;;1.87;;
19107;SDS011;9686;48.832;9.126;2024-03-23T01:29:39;1.40;;;1.30;;
19107;SDS011;9686;48.832;9.126;2024-03-23T01:32:05;1.87;;;1.70;;
19107;SDS011;9686;48.832;9.126;2024-03-23T01:34:30;4.43;;;1.93;;
19107;SDS011;9686;48.832;9.126;2024-03-23T01:36:55;2.33;;;1.73;;
19107;SDS011;9686;48.832;9.126;2024-03-23T01:39:21;2.77;;;1.63;;
19107;SDS011;9686;48.832;9.126;2024-03-23T01:41:46;2.57;;;2.00;;
19107;SDS011;9686;48.832;9.126;2024-03-23T01:44:11;2.20;;;1.50;;
19107;SDS011;9686;48.832;9.126;2024-03-23T01:46:37;1.47;;;1.30;;
19107;SDS011;9686;48.832;9.126;2024-03-23T01:49:03;1.63;;;1.50;;
19107;SDS011;9686;48.832;9.126;2024-03-23T01:51:30;1.23;;;1.17;;
19107;SDS011;9686;48.832;9.126;2024-03-23T01:53:55;1.27;;;1.17;;
19107;SDS011;9686;48.832;9.126;2024-03-23T01:56:21;1.03;;;0.83;;
19107;SDS011;9686;48.832;9.126;2024-03-23T01:58:47;2.67;;;1.07;;
19107;SDS011;9686;48.832;9.126;2024-03-23T02:01:12;2.50;;;1.10;;
19107;SDS011;9686;48.832;9.126;2024-03-23T02:03:37;1.30;;;1.20;;
19107;SDS011;9686;48.832;9.126;2024-03-23T02:06:02;1.53;;;1.30;;
19107;SDS011;9686;48.832;9.126;2024-03-23T02:08:28;4.07;;;1.40;;
19107;SDS011;9686;48.832;9.126;2024-03-23T02:10:55;0.60;;;0.60;;
19107;SDS011;9686;48.832;9.126;2024-03-23T02:13:21;0.73;;;0.73;;
19107;SDS011;9686;48.832;9.126;2024-03-23T02:15:46;1.03;;;1.03;;
19107;SDS011;9686;48.832;9.126;2024-03-23T02:18:11;3.90;;;1.30;;
19107;SDS011;9686;48.832;9.126;2024-03-23T02:20:37;3.23;;;1.27;;
19107;SDS011;9686;48.832;9.126;2024-03-23T02:23:03;1.13;;;0.97;;
19107;SDS011;9686;48.832;9.126;2024-03-23T02:25:31;1.40;;;1.30;;
19107;SDS011;9686;48.832;9.126;2024-03-23T02:27:56;0.97;;;0.80;;
19107;SDS011;9686;48.832;9.126;2024-03-23T02:30:23;1.13;;;1.03;;
19107;SDS011;9686;48.832;9.126;2024-03-23T02:32:49;1.23;;;1.13;;
19107;SDS011;9686;48.832;9.126;2024-03-23T02:35:14;3.97;;;1.87;;
19107;SDS011;9686;48.832;9.126;2024-03-23T02:37:39;1.00;;;0.90;;
19107;SDS011;9686;48.832;9.126;2024-03-23T02:40:05;1.10;;;1.00;;
19107;SDS011;9686;48.832;9.126;2024-03-23T02:42:30;2.00;;;0.70;;
19107;SDS011;9686;48.832;9.126;2024-03-23T02:44:56;1.10;;;1.00;;
19107;SDS011;9686;48.832;9.126;2024-03-23T02:47:22;1.40;;;1.30;;
19107;SDS011;9686;48.832;9.126;2024-03-23T02:49:48;1.30;;;1.20;;
19107;SDS011;9686;48.832;9.126;2024-03-23T02:52:13;5.13;;;1.70;;
19107;SDS011;9686;48.832;9.126;2024-03-23T02:54:38;2.37;;;0.90;;
19107;SDS011;9686;48.832;9.126;2024-03-23T02:57:04;1.50;;;1.40;;
19107;SDS011;9686;48.832;9.126;2024-03-23T02:59:29;1.13;;;1.07;;
19107;SDS011;9686;48.832;9.126;2024-03-23T03:01:55;1.50;;;1.30;;
19107;SDS011;9686;48.832;9.126;2024-03-23T03:04:20;2.83;;;1.27;;
19107;SDS011;9686;48.832;9.126;2024-03-23T03:06:49;1.93;;;1.27;;
19107;SDS011;9686;48.832;9.126;2024-03-23T03:09:14;1.27;;;1.10;;
19107;SDS011;9686;48.832;9.126;2024-03-23T03:11:40;1.17;;;1.07;;
19107;SDS011;9686;48.832;9.126;2024-03-23T03:14:05;1.97;;;1.40;;
19107;SDS011;9686;48.832;9.126;2024-03-23T03:16:32;1.57;;;1.10;;
19107;SDS011;9686;48.832;9.126;2024-03-23T03:18:58;1.33;;;1.23;;
19107;SDS011;9686;48.832;9.126;2024-03-23T03:21:23;2.00;;;1.17;;
19107;SDS011;9686;48.832;9.126;2024-03-23T03:23:49;1.73;;;1.53;;
19107;SDS011;9686;48.832;9.126;2024-03-23T03:26:15;2.67;;;1.60;;
19107;SDS011;9686;48.832;9.126;2024-03-23T03:28:41;1.20;;;0.87;;
19107;SDS011;9686;48.832;9.126;2024-03-23T03:31:06;2.20;;;1.00;;
19107;SDS011;9686;48.832;9.126;2024-03-23T03:33:32;1.70;;;0.90;;
19107;SDS011;9686;48.832;9.126;2024-03-23T03:35:57;1.37;;;1.27;;
19107;SDS011;9686;48.832;9.126;2024-03-23T03:38:22;1.00;;;1.00;;
19107;SDS011;9686;48.832;9.126;2024-03-23T03:40:47;1.50;;;1.40;;
19107;SDS011;9686;48.832;9.126;2024-03-23T03:43:13;1.37;;;1.00;;
19107;SDS011;9686;48.832;9.126;2024-03-23T03:45:38;1.57;;;1.47;;
19107;SDS011;9686;48.832;9.126;2024-03-23T03:48:04;1.80;;;1.30;;
19107;SDS011;9686;48.832;9.126;2024-03-23T03:50:29;1.50;;;1.20;;
19107;SDS011;9686;48.832;9.126;2024-03-23T03:52:55;1.83;;;1.50;;
19107;SDS011;9686;48.832;9.126;2024-03-23T03:55:20;1.60;;;1.20;;
19107;SDS011;9686;48.832;9.126;2024-03-23T03:57:46;1.90;;;1.03;;
19107;SDS011;9686;48.832;9.126;2024-03-23T04:00:11;3.73;;;1.57;;
19107;SDS011;9686;48.832;9.126;2024-03-23T04:02:37;1.23;;;1.07;;
19107;SDS011;9686;48.832;9.126;2024-03-23T04:05:03;1.23;;;1.10;;
19107;SDS011;9686;48.832;9.126;2024-03-23T04:07:29;1.00;;;1.00;;
19107;SDS011;9686;48.832;9.126;2024-03-23T04:09:54;1.60;;;1.27;;
19107;SDS011;9686;48.832;9.126;2024-03-23T04:12:20;3.93;;;1.37;;
19107;SDS011;9686;48.832;9.126;2024-03-23T04:14:45;2.10;;;1.43;;
19107;SDS011;9686;48.832;9.126;2024-03-23T04:17:10;1.43;;;1.27;;
19107;SDS011;9686;48.832;9.126;2024-03-23T04:19:36;1.63;;;1.53;;
19107;SDS011;9686;48.832;9.126;2024-03-23T04:22:01;0.80;;;0.80;;
19107;SDS011;9686;48.832;9.126;2024-03-23T04:24:26;1.77;;;1.30;;
19107;SDS011;9686;48.832;9.126;2024-03-23T04:26:52;1.33;;;1.10;;
19107;SDS011;9686;48.832;9.126;2024-03-23T04:29:18;2.70;;;1.50;;
19107;SDS011;9686;48.832;9.126;2024-03-23T04:31:43;5.40;;;2.13;;
19107;SDS011;9686;48.832;9.126;2024-03-23T04:34:08;1.87;;;1.77;;
19107;SDS011;9686;48.832;9.126;2024-03-23T04:36:34;4.57;;;2.40;;
19107;SDS011;9686;48.832;9.126;2024-03-23T04:38:59;2.67;;;2.47;;
19107;SDS011;9686;48.832;9.126;2024-03-23T04:41:25;3.83;;;2.57;;
19107;SDS011;9686;48.832;9.126;2024-03-23T04:43:50;7.90;;;3.17;;
19107;SDS011;9686;48.832;9.126;2024-03-23T04:46:16;4.00;;;2.50;;
19107;SDS011;9686;48.832;9.126;2024-03-23T04:48:41;4.63;;;2.50;;
19107;SDS011;9686;48.832;9.126;2024-03-23T04:51:09;7.23;;;3.27;;
19107;SDS011;9686;48.832;9.126;2024-03-23T04:53:36;3.70;;;2.53;;
19107;SDS011;9686;48.832;9.126;2024-03-23T04:56:01;7.17;;;3.37;;
19107;SDS011;9686;48.832;9.126;2024-03-23T04:58:29;5.53;;;4.17;;
19107;SDS011;9686;48.832;9.126;2024-03-23T05:00:54;4.67;;;4.13;;
19107;SDS011;9686;48.832;9.126;2024-03-23T05:03:22;6.60;;;3.57;;
19107;SDS011;9686;48.832;9.126;2024-03-23T05:05:48;11.80;;;6.83;;
19107;SDS011;9686;48.832;9.126;2024-03-23T05:08:14;9.50;;;7.17;;
19107;SDS011;9686;48.832;9.126;2024-03-23T05:10:41;12.40;;;8.33;;
19107;SDS011;9686;48.832;9.126;2024-03-23T05:13:07;11.97;;;7.63;;
19107;SDS011;9686;48.832;9.126;2024-03-23T05:15:32;7.97;;;7.17;;
19107;SDS011;9686;48.832;9.126;2024-03-23T05:17:58;8.43;;;7.27;;
19107;SDS011;9686;48.832;9.126;2024-03-23T05:20:23;12.67;;;7.10;;
19107;SDS011;9686;48.832;9.126;2024-03-23T05:22:49;12.70;;;7.97;;
19107;SDS011;9686;48.832;9.126;2024-03-23T05:25:14;16.63;;;6.97;;
19107;SDS011;9686;48.832;9.126;2024-03-23T05:27:41;7.67;;;6.93;;
19107;SDS011;9686;48.832;9.126;2024-03-23T05:30:06;11.73;;;6.97;;
19107;SDS011;9686;48.832;9.126;2024-03-23T05:32:32;10.83;;;7.43;;
19107;SDS011;9686;48.832;9.126;2024-03-23T05:34:57;9.03;;;6.73;;
19107;SDS011;9686;48.832;9.126;2024-03-23T05:37:23;12.40;;;6.90;;
19107;SDS011;9686;48.832;9.126;2024-03-23T05:39:48;9.60;;;6.27;;
19107;SDS011;9686;48.832;9.126;2024-03-23T05:42:17;8.80;;;7.07;;
19107;SDS011;9686;48.832;9.126;2024-03-23T05:44:44;7.97;;;6.40;;
19107;SDS011;9686;48.832;9.126;2024-03-23T05:47:10;11.27;;;6.37;;
19107;SDS011;9686;48.832;9.126;2024-03-23T05:49:35;9.93;;;5.57;;
19107;SDS011;9686;48.832;9.126;2024-03-23T05:52:00;8.17;;;5.37;;
19107;SDS011;9686;48.832;9.126;2024-03-23T05:54:28;9.13;;;5.60;;
19107;SDS011;9686;48.832;9.126;2024-03-23T05:56:54;8.33;;;5.70;;
19107;SDS011;9686;48.832;9.126;2024-03-23T05:59:20;3.93;;;3.10;;
19107;SDS011;9686;48.832;9.126;2024-03-23T06:01:46;4.93;;;3.17;;
19107;SDS011;9686;48.832;9.126;2024-03-23T06:04:12;3.43;;;2.67;;
19107;SDS011;9686;48.832;9.126;2024-03-23T06:06:38;2.17;;;1.97;;
19107;SDS011;9686;48.832;9.126;2024-03-23T06:09:03;2.20;;;1.87;;
19107;SDS011;9686;48.832;9.126;2024-03-23T06:11:28;2.40;;;2.20;;
19107;SDS011;9686;48.832;9.126;2024-03-23T06:13:54;2.93;;;2.43;;
19107;SDS011;9686;48.832;9.126;2024-03-23T06:16:20;1.57;;;1.47;;
19107;SDS011;9686;48.832;9.126;2024-03-23T06:18:48;1.80;;;1.70;;
19107;SDS011;9686;48.832;9.126;2024-03-23T06:21:13;2.20;;;1.90;;
19107;SDS011;9686;48.832;9.126;2024-03-23T06:23:40;1.30;;;1.20;;
19107;SDS011;9686;48.832;9.126;2024-03-23T06:26:06;1.97;;;1.50;;
19107;SDS011;9686;48.832;9.126;2024-03-23T06:28:31;1.93;;;1.27;;
19107;SDS011;9686;48.832;9.126;2024-03-23T06:30:56;1.63;;;1.53;;
19107;SDS011;9686;48.832;9.126;2024-03-23T06:33:21;0.90;;;0.90;;
19107;SDS011;9686;48.832;9.126;2024-03-23T06:35:50;2.67;;;1.87;;
19107;SDS011;9686;48.832;9.126;2024-03-23T06:38:17;1.97;;;1.10;;
19107;SDS011;9686;48.832;9.126;2024-03-23T06:40:42;1.47;;;1.20;;
19107;SDS011;9686;48.832;9.126;2024-03-23T06:43:12;0.80;;;0.80;;
19107;SDS011;9686;48.832;9.126;2024-03-23T06:45:38;0.90;;;0.90;;
19107;SDS011;9686;48.832;9.126;2024-03-23T06:48:03;0.97;;;0.93;;
19107;SDS011;9686;48.832;9.126;2024-03-23T06:50:28;1.00;;;1.00;;
19107;SDS011;9686;48.832;9.126;2024-03-23T06:52:54;0.97;;;0.80;;
19107;SDS011;9686;48.832;9.126;2024-03-23T06:55:19;0.53;;;0.53;;
19107;SDS011;9686;48.832;9.126;2024-03-23T06:57:44;0.60;;;0.60;;
19107;SDS011;9686;48.832;9.126;2024-03-23T07:00:10;0.40;;;0.40;;
19107;SDS011;9686;48.832;9.126;2024-03-23T07:02:36;1.50;;;0.53;;
19107;SDS011;9686;48.832;9.126;2024-03-23T07:05:01;0.33;;;0.33;;
19107;SDS011;9686;48.832;9.126;2024-03-23T07:07:28;0.30;;;0.30;;
19107;SDS011;9686;48.832;9.126;2024-03-23T07:09:55;0.33;;;0.33;;
19107;SDS011;9686;48.832;9.126;2024-03-23T07:12:20;1.93;;;0.63;;
19107;SDS011;9686;48.832;9.126;2024-03-23T07:14:46;0.50;;;0.47;;
19107;SDS011;9686;48.832;9.126;2024-03-23T07:17:11;0.37;;;0.37;;
19107;SDS011;9686;48.832;9.126;2024-03-23T07:19:36;0.20;;;0.20;;
19107;SDS011;9686;48.832;9.126;2024-03-23T07:22:02;0.57;;;0.57;;
19107;SDS011;9686;48.832;9.126;2024-03-23T07:24:27;0.50;;;0.50;;
19107;SDS011;9686;48.832;9.126;2024-03-23T07:26:52;0.40;;;0.40;;
19107;SDS011;9686;48.832;9.126;2024-03-23T07:29:19;0.43;;;0.43;;
19107;SDS011;9686;48.832;9.126;2024-03-23T07:31:44;0.37;;;0.37;;
19107;SDS011;9686;48.832;9.126;2024-03-23T07:34:10;0.60;;;0.60;;
19107;SDS011;9686;48.832;9.126;2024-03-23T07:36:35;0.67;;;0.67;;
19107;SDS011;9686;48.832;9.126;2024-03-23T07:39:00;0.20;;;0.20;;
19107;SDS011;9686;48.832;9.126;2024-03-23T07:41:26;0.57;;;0.53;;
19107;SDS011;9686;48.832;9.126;2024-03-23T07:43:53;0.90;;;0.90;;
19107;SDS011;9686;48.832;9.126;2024-03-23T07:46:18;4.47;;;0.40;;
19107;SDS011;9686;48.832;9.126;2024-03-23T07:48:46;0.60;;;0.60;;
19107;SDS011;9686;48.832;9.126;2024-03-23T07:51:20;0.23;;;0.23;;
19107;SDS011;9686;48.832;9.126;2024-03-23T07:53:46;0.50;;;0.50;;
19107;SDS011;9686;48.832;9.126;2024-03-23T07:56:13;0.53;;;0.53;;
19107;SDS011;9686;48.832;9.126;2024-03-23T07:58:40;0.33;;;0.30;;
19107;SDS011;9686;48.832;9.126;2024-03-23T08:01:09;0.20;;;0.20;;
19107;SDS011;9686;48.832;9.126;2024-03-23T08:03:39;0.30;;;0.30;;
19107;SDS011;9686;48.832;9.126;2024-03-23T08:06:26;0.20;;;0.20;;
19107;SDS011;9686;48.832;9.126;2024-03-23T08:08:54;4.97;;;0.60;;
19107;SDS011;9686;48.832;9.126;2024-03-23T08:11:30;0.30;;;0.30;;
19107;SDS011;9686;48.832;9.126;2024-03-23T08:13:57;0.40;;;0.40;;
19107;SDS011;9686;48.832;9.126;2024-03-23T08:16:22;0.27;;;0.27;;
19107;SDS011;9686;48.832;9.126;2024-03-23T08:18:50;2.87;;;0.53;;
19107;SDS011;9686;48.832;9.126;2024-03-23T08:21:16;0.47;;;0.47;;
19107;SDS011;9686;48.832;9.126;2024-03-23T08:23:41;0.33;;;0.33;;
19107;SDS011;9686;48.832;9.126;2024-03-23T08:26:07;0.33;;;0.33;;
19107;SDS011;9686;48.832;9.126;2024-03-23T08:28:34;0.40;;;0.40;;
19107;SDS011;9686;48.832;9.126;2024-03-23T08:31:09;0.53;;;0.53;;
19107;SDS011;9686;48.832;9.126;2024-03-23T08:33:36;0.30;;;0.30;;
19107;SDS011;9686;48.832;9.126;2024-03-23T08:36:02;0.67;;;0.43;;
19107;SDS011;9686;48.832;9.126;2024-03-23T08:38:29;0.77;;;0.50;;
19107;SDS011;9686;48.832;9.126;2024-03-23T08:41:01;0.30;;;0.30;;
19107;SDS011;9686;48.832;9.126;2024-03-23T08:43:28;0.53;;;0.53;;
19107;SDS011;9686;48.832;9.126;2024-03-23T08:46:03;0.37;;;0.37;;
19107;SDS011;9686;48.832;9.126;2024-03-23T08:48:48;0.77;;;0.57;;
19107;SDS011;9686;48.832;9.126;2024-03-23T08:51:14;1.27;;;1.03;;
19107;SDS011;9686;48.832;9.126;2024-03-23T08:53:41;3.40;;;0.97;;
19107;SDS011;9686;48.832;9.126;2024-03-23T08:56:07;6.07;;;1.50;;
19107;SDS011;9686;48.832;9.126;2024-03-23T08:58:33;1.43;;;1.13;;
19107;SDS011;9686;48.832;9.126;2024-03-23T09:01:07;1.80;;;1.07;;
19107;SDS011;9686;48.832;9.126;2024-03-23T09:03:32;1.43;;;1.17;;
19107;SDS011;9686;48.832;9.126;2024-03-23T09:05:58;0.73;;;0.73;;
19107;SDS011;9686;48.832;9.126;2024-03-23T09:08:24;1.03;;;1.00;;
19107;SDS011;9686;48.832;9.126;2024-03-23T09:10:49;3.17;;;1.47;;
19107;SDS011;9686;48.832;9.126;2024-03-23T09:13:15;2.47;;;1.43;;
19107;SDS011;9686;48.832;9.126;2024-03-23T09:15:50;2.30;;;1.83;;
19107;SDS011;9686;48.832;9.126;2024-03-23T09:18:21;0.80;;;0.80;;
19107;SDS011;9686;48.832;9.126;2024-03-23T09:20:46;2.13;;;1.77;;
19107;SDS011;9686;48.832;9.126;2024-03-23T09:23:12;1.67;;;1.57;;
19107;SDS011;9686;48.832;9.126;2024-03-23T09:25:37;6.23;;;1.83;;
19107;SDS011;9686;48.832;9.126;2024-03-23T09:28:04;1.87;;;1.77;;
19107;SDS011;9686;48.832;9.126;2024-03-23T09:30:33;2.37;;;1.63;;
19107;SDS011;9686;48.832;9.126;2024-03-23T09:33:00;0.90;;;0.90;;
19107;SDS011;9686;48.832;9.126;2024-03-23T09:35:26;3.27;;;2.23;;
19107;SDS011;9686;48.832;9.126;2024-03-23T09:37:51;1.67;;;1.00;;
19107;SDS011;9686;48.832;9.126;2024-03-23T09:40:16;1.63;;;1.53;;
19107;SDS011;9686;48.832;9.126;2024-03-23T09:42:42;1.70;;;1.33;;
19107;SDS011;9686;48.832;9.126;2024-03-23T09:45:16;3.93;;;1.47;;
19107;SDS011;9686;48.832;9.126;2024-03-23T09:47:44;1.87;;;1.60;;
19107;SDS011;9686;48.832;9.126;2024-03-23T09:50:12;1.47;;;1.30;;
19107;SDS011;9686;48.832;9.126;2024-03-23T09:52:37;5.03;;;1.07;;
19107;SDS011;9686;48.832;9.126;2024-03-23T09:55:03;0.97;;;0.93;;
19107;SDS011;9686;48.832;9.126;2024-03-23T09:57:29;6.97;;;2.10;;
19107;SDS011;9686;48.832;9.126;2024-03-23T09:59:54;3.83;;;1.47;;
19107;SDS011;9686;48.832;9.126;2024-03-23T10:02:21;2.47;;;1.33;;
19107;SDS011;9686;48.832;9.126;2024-03-23T10:04:47;6.63;;;1.50;;
19107;SDS011;9686;48.832;9.126;2024-03-23T10:07:13;1.80;;;1.13;;
19107;SDS011;9686;48.832;9.126;2024-03-23T10:09:40;3.27;;;2.10;;
19107;SDS011;9686;48.832;9.126;2024-03-23T10:12:12;1.00;;;1.00;;
19107;SDS011;9686;48.832;9.126;2024-03-23T10:14:39;2.90;;;2.13;;
19107;SDS011;9686;48.832;9.126;2024-03-23T10:17:14;2.30;;;1.57;;
19107;SDS011;9686;48.832;9.126;2024-03-23T10:19:44;2.03;;;1.87;;
19107;SDS011;9686;48.832;9.126;2024-03-23T10:22:12;1.30;;;1.20;;
19107;SDS011;9686;48.832;9.126;2024-03-23T10:24:39;4.73;;;2.67;;
19107;SDS011;9686;48.832;9.126;2024-03-23T10:27:04;4.07;;;1.87;;
19107;SDS011;9686;48.832;9.126;2024-03-23T10:29:29;1.90;;;1.53;;
19107;SDS011;9686;48.832;9.126;2024-03-23T10:31:59;1.47;;;1.37;;
19107;SDS011;9686;48.832;9.126;2024-03-23T10:34:33;2.27;;;1.90;;
19107;SDS011;9686;48.832;9.126;2024-03-23T10:36:58;1.50;;;1.40;;
19107;SDS011;9686;48.832;9.126;2024-03-23T10:39:26;1.77;;;1.47;;
19107;SDS011;9686;48.832;9.126;2024-03-23T10:41:52;5.90;;;1.60;;
19107;SDS011;9686;48.832;9.126;2024-03-23T10:44:18;7.03;;;1.63;;
19107;SDS011;9686;48.832;9.126;2024-03-23T10:46:44;2.77;;;1.63;;
19107;SDS011;9686;48.832;9.126;2024-03-23T10:49:10;2.80;;;1.70;;
19107;SDS011;9686;48.832;9.126;2024-03-23T10:51:35;3.87;;;2.03;;
19107;SDS011;9686;48.832;9.126;2024-03-23T10:54:02;3.20;;;2.30;;
19107;SDS011;9686;48.832;9.126;2024-03-23T10:56:31;4.27;;;2.40;;
19107;SDS011;9686;48.832;9.126;2024-03-23T10:58:59;3.93;;;2.00;;
19107;SDS011;9686;48.832;9.126;2024-03-23T11:01:26;1.93;;;1.47;;
19107;SDS011;9686;48.832;9.126;2024-03-23T11:03:51;2.07;;;1.83;;
19107;SDS011;9686;48.832;9.126;2024-03-23T11:06:35;3.03;;;2.10;;
19107;SDS011;9686;48.832;9.126;2024-03-23T11:09:02;1.87;;;1.70;;
19107;SDS011;9686;48.832;9.126;2024-03-23T11:11:27;7.77;;;1.73;;
19107;SDS011;9686;48.832;9.126;2024-03-23T11:13:56;2.33;;;1.80;;
19107;SDS011;9686;48.832;9.126;2024-03-23T11:16:24;1.27;;;1.17;;
19107;SDS011;9686;48.832;9.126;2024-03-23T11:22:01;1.40;;;1.30;;
19107;SDS011;9686;48.832;9.126;2024-03-23T11:24:27;1.77;;;1.53;;
19107;SDS011;9686;48.832;9.126;2024-03-23T11:26:53;2.80;;;2.20;;
19107;SDS011;9686;48.832;9.126;2024-03-23T11:29:19;3.40;;;1.93;;
19107;SDS011;9686;48.832;9.126;2024-03-23T11:31:48;3.63;;;1.73;;
19107;SDS011;9686;48.832;9.126;2024-03-23T11:34:17;9.23;;;1.60;;
19107;SDS011;9686;48.832;9.126;2024-03-23T11:36:43;1.83;;;1.53;;
19107;SDS011;9686;48.832;9.126;2024-03-23T11:39:15;1.90;;;1.53;;
19107;SDS011;9686;48.832;9.126;2024-03-23T11:41:51;2.60;;;1.60;;
19107;SDS011;9686;48.832;9.126;2024-03-23T11:44:18;2.83;;;1.67;;
19107;SDS011;9686;48.832;9.126;2024-03-23T11:46:44;1.30;;;1.20;;
19107;SDS011;9686;48.832;9.126;2024-03-23T11:49:20;1.30;;;1.20;;
19107;SDS011;9686;48.832;9.126;2024-03-23T11:51:49;2.30;;;1.23;;
19107;SDS011;9686;48.832;9.126;2024-03-23T11:54:15;6.63;;;1.60;;
19107;SDS011;9686;48.832;9.126;2024-03-23T11:56:40;1.63;;;1.23;;
19107;SDS011;9686;48.832;9.126;2024-03-23T11:59:06;2.63;;;1.43;;
19107;SDS011;9686;48.832;9.126;2024-03-23T12:01:31;0.93;;;0.93;;
19107;SDS011;9686;48.832;9.126;2024-03-23T12:03:57;0.70;;;0.70;;
19107;SDS011;9686;48.832;9.126;2024-03-23T12:06:22;0.37;;;0.37;;
19107;SDS011;9686;48.832;9.126;2024-03-23T12:08:47;7.20;;;1.07;;
19107;SDS011;9686;48.832;9.126;2024-03-23T12:11:16;1.23;;;0.90;;
19107;SDS011;9686;48.832;9.126;2024-03-23T12:13:45;2.70;;;0.93;;
19107;SDS011;9686;48.832;9.126;2024-03-23T12:16:15;3.30;;;1.37;;
19107;SDS011;9686;48.832;9.126;2024-03-23T12:18:42;0.80;;;0.80;;
19107;SDS011;9686;48.832;9.126;2024-03-23T12:21:09;0.80;;;0.77;;
19107;SDS011;9686;48.832;9.126;2024-03-23T12:23:34;1.90;;;1.10;;
19107;SDS011;9686;48.832;9.126;2024-03-23T12:26:00;7.00;;;1.57;;
19107;SDS011;9686;48.832;9.126;2024-03-23T12:28:26;3.87;;;0.97;;
19107;SDS011;9686;48.832;9.126;2024-03-23T12:30:52;1.07;;;0.77;;
19107;SDS011;9686;48.832;9.126;2024-03-23T12:33:19;0.67;;;0.67;;
19107;SDS011;9686;48.832;9.126;2024-03-23T12:35:44;1.90;;;0.80;;
19107;SDS011;9686;48.832;9.126;2024-03-23T12:38:09;3.27;;;1.63;;
19107;SDS011;9686;48.832;9.126;2024-03-23T12:40:34;4.50;;;1.57;;
19107;SDS011;9686;48.832;9.126;2024-03-23T12:43:00;1.33;;;1.23;;
19107;SDS011;9686;48.832;9.126;2024-03-23T12:45:25;1.40;;;1.30;;
19107;SDS011;9686;48.832;9.126;2024-03-23T12:47:50;12.93;;;1.30;;
19107;SDS011;9686;48.832;9.126;2024-03-23T12:50:18;2.33;;;1.03;;
19107;SDS011;9686;48.832;9.126;2024-03-23T12:52:44;0.80;;;0.80;;
19107;SDS011;9686;48.832;9.126;2024-03-23T12:55:09;1.80;;;1.53;;
19107;SDS011;9686;48.832;9.126;2024-03-23T12:57:35;6.13;;;1.37;;
19107;SDS011;9686;48.832;9.126;2024-03-23T13:00:01;1.13;;;1.03;;
19107;SDS011;9686;48.832;9.126;2024-03-23T13:02:26;4.30;;;1.20;;
19107;SDS011;9686;48.832;9.126;2024-03-23T13:04:51;3.70;;;0.97;;
19107;SDS011;9686;48.832;9.126;2024-03-23T13:07:18;9.87;;;1.53;;
19107;SDS011;9686;48.832;9.126;2024-03-23T13:09:44;3.07;;;1.60;;
19107;SDS011;9686;48.832;9.126;2024-03-23T13:12:10;2.23;;;0.83;;
19107;SDS011;9686;48.832;9.126;2024-03-23T13:14:39;7.23;;;1.30;;
19107;SDS011;9686;48.832;9.126;2024-03-23T13:17:04;0.90;;;0.87;;
19107;SDS011;9686;48.832;9.126;2024-03-23T13:19:31;2.20;;;1.07;;
19107;SDS011;9686;48.832;9.126;2024-03-23T13:22:00;4.33;;;1.17;;
19107;SDS011;9686;48.832;9.126;2024-03-23T13:24:26;1.17;;;1.07;;
19107;SDS011;9686;48.832;9.126;2024-03-23T13:26:53;2.10;;;0.93;;
19107;SDS011;9686;48.832;9.126;2024-03-23T13:29:19;3.93;;;1.60;;
19107;SDS011;9686;48.832;9.126;2024-03-23T13:31:45;5.37;;;1.33;;
19107;SDS011;9686;48.832;9.126;2024-03-23T13:34:11;2.37;;;1.17;;
19107;SDS011;9686;48.832;9.126;2024-03-23T13:36:39;1.73;;;0.67;;
19107;SDS011;9686;48.832;9.126;2024-03-23T13:39:05;1.07;;;1.00;;
19107;SDS011;9686;48.832;9.126;2024-03-23T13:41:43;2.00;;;1.20;;
19107;SDS011;9686;48.832;9.126;2024-03-23T13:44:10;0.73;;;0.70;;
19107;SDS011;9686;48.832;9.126;2024-03-23T13:46:37;2.10;;;1.57;;
19107;SDS011;9686;48.832;9.126;2024-03-23T13:49:03;1.73;;;0.90;;
19107;SDS011;9686;48.832;9.126;2024-03-23T13:51:28;2.00;;;1.13;;
19107;SDS011;9686;48.832;9.126;2024-03-23T13:53:54;5.40;;;2.10;;
19107;SDS011;9686;48.832;9.126;2024-03-23T13:56:21;4.03;;;1.40;;
19107;SDS011;9686;48.832;9.126;2024-03-23T13:58:47;0.97;;;0.63;;
19107;SDS011;9686;48.832;9.126;2024-03-23T14:01:13;2.10;;;0.70;;
19107;SDS011;9686;48.832;9.126;2024-03-23T14:03:39;0.60;;;0.60;;
19107;SDS011;9686;48.832;9.126;2024-03-23T14:06:05;3.83;;;0.90;;
19107;SDS011;9686;48.832;9.126;2024-03-23T14:08:32;1.40;;;0.80;;
19107;SDS011;9686;48.832;9.126;2024-03-23T14:10:59;1.87;;;0.83;;
19107;SDS011;9686;48.832;9.126;2024-03-23T14:13:24;1.60;;;1.30;;
19107;SDS011;9686;48.832;9.126;2024-03-23T14:15:55;2.80;;;1.60;;
19107;SDS011;9686;48.832;9.126;2024-03-23T14:18:21;6.13;;;1.10;;
19107;SDS011;9686;48.832;9.126;2024-03-23T14:20:50;0.73;;;0.70;;
19107;SDS011;9686;48.832;9.126;2024-03-23T14:23:16;1.90;;;0.83;;
19107;SDS011;9686;48.832;9.126;2024-03-23T14:25:42;0.50;;;0.50;;
19107;SDS011;9686;48.832;9.126;2024-03-23T14:28:07;0.63;;;0.57;;
19107;SDS011;9686;48.832;9.126;2024-03-23T14:30:38;0.43;;;0.43;;
19107;SDS011;9686;48.832;9.126;2024-03-23T14:33:04;0.70;;;0.70;;
19107;SDS011;9686;48.832;9.126;2024-03-23T14:35:30;0.60;;;0.60;;
19107;SDS011;9686;48.832;9.126;2024-03-23T14:37:56;3.10;;;1.07;;
19107;SDS011;9686;48.832;9.126;2024-03-23T14:40:21;0.60;;;0.60;;
19107;SDS011;9686;48.832;9.126;2024-03-23T14:42:46;4.33;;;1.13;;
19107;SDS011;9686;48.832;9.126;2024-03-23T14:45:12;0.70;;;0.70;;
19107;SDS011;9686;48.832;9.126;2024-03-23T14:47:37;0.60;;;0.60;;
19107;SDS011;9686;48.832;9.126;2024-03-23T14:50:02;4.27;;;1.07;;
19107;SDS011;9686;48.832;9.126;2024-03-23T14:52:28;5.83;;;1.57;;
19107;SDS011;9686;48.832;9.126;2024-03-23T14:54:54;3.87;;;1.73;;
19107;SDS011;9686;48.832;9.126;2024-03-23T14:57:21;3.27;;;1.27;;
19107;SDS011;9686;48.832;9.126;2024-03-23T14:59:46;1.57;;;1.13;;
19107;SDS011;9686;48.832;9.126;2024-03-23T15:02:11;2.13;;;0.80;;
19107;SDS011;9686;48.832;9.126;2024-03-23T15:04:38;0.80;;;0.80;;
19107;SDS011;9686;48.832;9.126;2024-03-23T15:07:06;0.60;;;0.60;;
19107;SDS011;9686;48.832;9.126;2024-03-23T15:09:32;1.03;;;0.90;;
19107;SDS011;9686;48.832;9.126;2024-03-23T15:11:57;1.63;;;0.60;;
19107;SDS011;9686;48.832;9.126;2024-03-23T15:14:25;0.70;;;0.70;;
19107;SDS011;9686;48.832;9.126;2024-03-23T15:16:51;4.20;;;1.00;;
19107;SDS011;9686;48.832;9.126;2024-03-23T15:19:17;1.43;;;0.97;;
19107;SDS011;9686;48.832;9.126;2024-03-23T15:21:43;0.87;;;0.53;;
19107;SDS011;9686;48.832;9.126;2024-03-23T15:24:09;0.60;;;0.40;;
19107;SDS011;9686;48.832;9.126;2024-03-23T15:26:37;0.73;;;0.70;;
19107;SDS011;9686;48.832;9.126;2024-03-23T15:29:03;1.37;;;0.60;;
19107;SDS011;9686;48.832;9.126;2024-03-23T15:31:36;1.53;;;1.00;;
19107;SDS011;9686;48.832;9.126;2024-03-23T15:34:02;0.97;;;0.97;;
19107;SDS011;9686;48.832;9.126;2024-03-23T15:36:27;2.50;;;0.97;;
19107;SDS011;9686;48.832;9.126;2024-03-23T15:38:52;0.80;;;0.73;;
19107;SDS011;9686;48.832;9.126;2024-03-23T15:41:19;3.17;;;1.07;;
19107;SDS011;9686;48.832;9.126;2024-03-23T15:43:45;1.83;;;0.50;;
19107;SDS011;9686;48.832;9.126;2024-03-23T15:46:10;0.80;;;0.80;;
19107;SDS011;9686;48.832;9.126;2024-03-23T15:48:36;0.40;;;0.40;;
19107;SDS011;9686;48.832;9.126;2024-03-23T15:51:02;1.47;;;1.13;;
19107;SDS011;9686;48.832;9.126;2024-03-23T15:53:31;0.50;;;0.50;;